Time;durP1;ratioP1;P1;durP2;ratioP2;P2;SDS_P1;SDS_P2;PMS_P1;PMS_P2;Temp;Humidity;BMP_temperature;BMP_pressure;BME280_temperature;BME280_humidity;BME280_pressure;Samples;Min_cycle;Max_cycle;Signal;HPM_P1;HPM_P2
2021/08/17 00:01:57;;;;;;;;;;;19.00;73.00;;;;;;494354;240;1343;-46
2021/08/17 00:03:58;;;;;;;;;;;19.00;72.90;;;;;;494137;240;939;-46
2021/08/17 00:06:01;;;;;;;;;;;19.00;72.90;;;;;;494066;240;1450;-46
2021/08/17 00:08:01;;;;;;;;;;;19.00;73.00;;;;;;494096;240;2367;-46
2021/08/17 00:10:02;;;;;;;;;;;19.00;72.90;;;;;;494105;240;1091;-46
2021/08/17 00:12:03;;;;;;;;;;;19.00;72.90;;;;;;494315;240;1313;-46
2021/08/17 00:14:05;;;;;;;;;;;19.00;72.90;;;;;;494448;240;1070;-46
2021/08/17 00:16:06;;;;;;;;;;;19.00;72.90;;;;;;494273;240;2127;-46
2021/08/17 00:18:07;;;;;;;;;;;19.00;72.90;;;;;;494145;240;1194;-46
2021/08/17 00:20:09;;;;;;;;;;;19.00;72.90;;;;;;494395;240;1054;-46
2021/08/17 00:22:10;;;;;;;;;;;19.00;72.80;;;;;;494007;240;1313;-46
2021/08/17 00:24:11;;;;;;;;;;;19.10;72.90;;;;;;494091;241;1123;-46
2021/08/17 00:26:13;;;;;;;;;;;19.00;72.90;;;;;;494059;240;1130;-46
2021/08/17 00:28:14;;;;;;;;;;;19.00;72.90;;;;;;494062;240;1128;-46
2021/08/17 00:30:15;;;;;;;;;;;19.00;73.00;;;;;;494378;240;1066;-46
2021/08/17 00:32:17;;;;;;;;;;;19.00;73.10;;;;;;493944;240;1428;-46
2021/08/17 00:34:18;;;;;;;;;;;19.00;73.00;;;;;;494090;240;1169;-46
2021/08/17 00:36:19;;;;;;;;;;;19.00;72.90;;;;;;494485;240;2159;-46
2021/08/17 00:38:20;;;;;;;;;;;19.00;72.90;;;;;;494192;240;1424;-46
2021/08/17 00:40:22;;;;;;;;;;;19.00;72.90;;;;;;494067;240;1061;-46
2021/08/17 00:42:23;;;;;;;;;;;19.00;72.90;;;;;;494229;240;1162;-46
2021/08/17 00:44:25;;;;;;;;;;;19.00;72.90;;;;;;494569;240;1247;-46
2021/08/17 00:46:26;;;;;;;;;;;19.00;72.80;;;;;;494546;240;1419;-46
2021/08/17 00:48:27;;;;;;;;;;;19.00;72.80;;;;;;494053;240;1247;-46
2021/08/17 00:50:28;;;;;;;;;;;19.00;72.90;;;;;;494058;240;1008;-46
2021/08/17 00:52:30;;;;;;;;;;;19.00;72.80;;;;;;493993;240;1765;-46
2021/08/17 00:54:31;;;;;;;;;;;19.00;72.90;;;;;;494166;240;985;-46
2021/08/17 00:56:32;;;;;;;;;;;19.00;72.90;;;;;;494177;240;2203;-46
2021/08/17 00:58:34;;;;;;;;;;;19.00;72.90;;;;;;494208;240;1120;-46
2021/08/17 01:00:35;;;;;;;;;;;19.00;72.80;;;;;;494045;240;1049;-46
2021/08/17 01:02:36;;;;;;;;;;;19.00;72.80;;;;;;493995;240;1155;-46
2021/08/17 01:04:38;;;;;;;;;;;19.00;72.80;;;;;;494551;240;977;-46
2021/08/17 01:06:39;;;;;;;;;;;19.00;72.80;;;;;;494152;240;1123;-46
2021/08/17 01:08:40;;;;;;;;;;;19.00;72.90;;;;;;494535;240;1126;-46
2021/08/17 01:10:42;;;;;;;;;;;19.00;73.00;;;;;;494564;240;1077;-46
2021/08/17 01:12:43;;;;;;;;;;;19.00;72.90;;;;;;494318;240;1308;-46
2021/08/17 01:14:44;;;;;;;;;;;19.00;72.90;;;;;;494491;240;1052;-46
2021/08/17 01:16:46;;;;;;;;;;;19.00;72.90;;;;;;494480;240;2135;-46
2021/08/17 01:18:47;;;;;;;;;;;19.00;72.90;;;;;;494302;240;1077;-46
2021/08/17 01:20:48;;;;;;;;;;;19.00;72.90;;;;;;494137;240;1151;-46
2021/08/17 01:22:50;;;;;;;;;;;19.00;72.80;;;;;;494047;237;1256;-46
2021/08/17 01:24:51;;;;;;;;;;;19.00;72.80;;;;;;494221;240;1063;-46
2021/08/17 01:26:52;;;;;;;;;;;19.00;72.90;;;;;;494465;240;1220;-46
2021/08/17 01:28:54;;;;;;;;;;;19.00;72.90;;;;;;494164;240;1075;-46
2021/08/17 01:30:55;;;;;;;;;;;19.00;72.90;;;;;;494037;240;1077;-46
2021/08/17 01:32:56;;;;;;;;;;;19.00;72.80;;;;;;494217;240;1266;-46
2021/08/17 01:34:57;;;;;;;;;;;19.00;73.00;;;;;;494037;240;1275;-46
2021/08/17 01:36:59;;;;;;;;;;;19.00;73.00;;;;;;494187;240;2190;-46
2021/08/17 01:39:00;;;;;;;;;;;19.00;73.00;;;;;;494474;240;1043;-46
2021/08/17 01:41:01;;;;;;;;;;;19.00;73.00;;;;;;494453;240;1099;-46
2021/08/17 01:43:03;;;;;;;;;;;19.00;73.00;;;;;;494100;240;1018;-46
2021/08/17 01:45:04;;;;;;;;;;;19.00;73.00;;;;;;494586;240;1090;-46
2021/08/17 01:47:05;;;;;;;;;;;19.00;72.80;;;;;;494462;240;1222;-46
2021/08/17 01:49:07;;;;;;;;;;;19.00;72.90;;;;;;494096;240;1341;-46
2021/08/17 01:51:08;;;;;;;;;;;19.00;73.00;;;;;;494454;240;1165;-46
2021/08/17 01:53:10;;;;;;;;;;;19.00;73.00;;;;;;494083;240;1178;-46
2021/08/17 01:55:11;;;;;;;;;;;19.00;73.00;;;;;;494044;240;1156;-46
2021/08/17 01:57:12;;;;;;;;;;;19.00;72.80;;;;;;493908;240;2182;-46
2021/08/17 01:59:14;;;;;;;;;;;19.00;72.80;;;;;;494072;240;1056;-46
2021/08/17 02:01:15;;;;;;;;;;;19.00;72.90;;;;;;493888;240;1209;-46
2021/08/17 02:03:16;;;;;;;;;;;19.00;72.90;;;;;;493998;240;1353;-46
2021/08/17 02:05:23;;;;;;;;;;;19.00;72.90;;;;;;494085;240;1009;-46
2021/08/17 02:07:19;;;;;;;;;;;19.00;72.80;;;;;;493781;241;2280;-46
2021/08/17 02:09:20;;;;;;;;;;;19.00;72.80;;;;;;494532;240;1290;-46
2021/08/17 02:11:22;;;;;;;;;;;19.00;72.90;;;;;;494502;240;1313;-46
2021/08/17 02:13:24;;;;;;;;;;;19.00;73.00;;;;;;493895;240;1118;-46
2021/08/17 02:15:25;;;;;;;;;;;19.00;72.90;;;;;;494037;240;1176;-46
2021/08/17 02:17:26;;;;;;;;;;;19.00;72.80;;;;;;493914;240;2135;-46
2021/08/17 02:19:28;;;;;;;;;;;19.00;72.80;;;;;;494022;240;1085;-46
2021/08/17 02:21:29;;;;;;;;;;;19.00;72.80;;;;;;494166;240;1390;-46
2021/08/17 02:23:30;;;;;;;;;;;19.00;72.90;;;;;;494002;240;1216;-46
2021/08/17 02:25:32;;;;;;;;;;;19.00;73.00;;;;;;493972;240;1128;-46
2021/08/17 02:27:34;;;;;;;;;;;19.00;73.00;;;;;;494045;240;1066;-46
2021/08/17 02:29:35;;;;;;;;;;;19.00;73.00;;;;;;494250;240;1066;-46
2021/08/17 02:31:36;;;;;;;;;;;19.00;72.90;;;;;;493986;240;1120;-46
2021/08/17 02:33:37;;;;;;;;;;;19.00;72.90;;;;;;494528;240;946;-46
2021/08/17 02:35:39;;;;;;;;;;;19.00;72.80;;;;;;494041;240;1367;-46
2021/08/17 02:37:40;;;;;;;;;;;19.00;72.80;;;;;;494017;240;2139;-46
2021/08/17 02:39:41;;;;;;;;;;;19.00;72.90;;;;;;494071;240;996;-46
2021/08/17 02:41:43;;;;;;;;;;;19.00;72.90;;;;;;494337;240;1266;-46
2021/08/17 02:43:44;;;;;;;;;;;19.00;73.00;;;;;;494085;240;1052;-46
2021/08/17 02:45:45;;;;;;;;;;;19.00;72.90;;;;;;494525;240;1058;-46
2021/08/17 02:47:47;;;;;;;;;;;19.00;73.00;;;;;;494106;240;1355;-46
2021/08/17 02:49:48;;;;;;;;;;;19.00;73.00;;;;;;494052;240;1041;-46
2021/08/17 02:51:49;;;;;;;;;;;19.00;72.90;;;;;;494010;240;1104;-46
2021/08/17 02:53:51;;;;;;;;;;;19.00;72.90;;;;;;494315;240;1175;-46
2021/08/17 02:55:52;;;;;;;;;;;19.00;72.80;;;;;;494552;240;1055;-46
2021/08/17 02:57:53;;;;;;;;;;;19.00;73.00;;;;;;494342;240;2189;-46
2021/08/17 02:59:55;;;;;;;;;;;19.00;73.00;;;;;;494146;240;1064;-46
2021/08/17 03:01:56;;;;;;;;;;;19.00;72.90;;;;;;494105;240;1169;-46
2021/08/17 03:03:57;;;;;;;;;;;19.00;73.00;;;;;;494517;240;1073;-46
2021/08/17 03:05:59;;;;;;;;;;;19.00;73.00;;;;;;494192;240;1120;-46
2021/08/17 03:08:00;;;;;;;;;;;19.00;73.00;;;;;;494228;240;1233;-46
2021/08/17 03:10:02;;;;;;;;;;;19.00;72.90;;;;;;494053;240;1168;-46
2021/08/17 03:12:03;;;;;;;;;;;19.00;72.80;;;;;;494188;240;1145;-46
2021/08/17 03:14:04;;;;;;;;;;;19.00;72.90;;;;;;494404;240;1020;-46
2021/08/17 03:16:06;;;;;;;;;;;19.00;72.90;;;;;;493994;240;2198;-46
2021/08/17 03:18:07;;;;;;;;;;;19.00;72.90;;;;;;494279;240;1030;-46
2021/08/17 03:20:09;;;;;;;;;;;19.00;72.90;;;;;;494359;240;1047;-46
2021/08/17 03:22:10;;;;;;;;;;;18.90;72.90;;;;;;494030;240;1197;-46
2021/08/17 03:24:11;;;;;;;;;;;19.00;73.00;;;;;;494102;240;1155;-46
2021/08/17 03:26:13;;;;;;;;;;;19.00;72.90;;;;;;494148;240;1322;-46
2021/08/17 03:28:14;;;;;;;;;;;19.00;72.80;;;;;;494048;240;1109;-46
2021/08/17 03:30:15;;;;;;;;;;;19.00;72.80;;;;;;494035;240;1090;-46
2021/08/17 03:32:17;;;;;;;;;;;19.00;72.80;;;;;;493930;240;1297;-46
2021/08/17 03:34:18;;;;;;;;;;;19.00;72.80;;;;;;493989;240;1041;-46
2021/08/17 03:36:19;;;;;;;;;;;19.00;72.80;;;;;;494427;240;2127;-46
2021/08/17 03:38:20;;;;;;;;;;;19.00;72.90;;;;;;493948;240;1812;-46
2021/08/17 03:40:22;;;;;;;;;;;19.00;73.00;;;;;;493972;240;1135;-46
2021/08/17 03:42:23;;;;;;;;;;;18.90;72.90;;;;;;494379;240;1045;-46
2021/08/17 03:44:24;;;;;;;;;;;19.00;73.00;;;;;;494233;240;1083;-46
2021/08/17 03:46:26;;;;;;;;;;;19.00;73.00;;;;;;494412;240;1076;-46
2021/08/17 03:48:27;;;;;;;;;;;19.00;73.00;;;;;;494419;240;1222;-46
2021/08/17 03:50:28;;;;;;;;;;;18.90;73.00;;;;;;494204;240;1067;-46
2021/08/17 03:52:30;;;;;;;;;;;18.90;72.90;;;;;;494528;240;1179;-46
2021/08/17 03:54:31;;;;;;;;;;;18.90;72.90;;;;;;494287;240;1163;-46
2021/08/17 03:56:32;;;;;;;;;;;19.00;72.90;;;;;;494259;240;2139;-46
2021/08/17 03:58:34;;;;;;;;;;;19.00;72.90;;;;;;494015;240;1153;-46
2021/08/17 04:00:35;;;;;;;;;;;19.00;72.90;;;;;;494247;240;977;-46
2021/08/17 04:02:36;;;;;;;;;;;19.00;72.80;;;;;;494189;240;2067;-46
2021/08/17 04:04:38;;;;;;;;;;;19.00;72.80;;;;;;493993;240;1052;-46
2021/08/17 04:06:39;;;;;;;;;;;19.00;72.90;;;;;;493972;240;1148;-46
2021/08/17 04:08:40;;;;;;;;;;;19.00;72.90;;;;;;494102;240;1117;-46
2021/08/17 04:10:46;;;;;;;;;;;18.90;72.80;;;;;;494108;240;1145;-46
2021/08/17 04:12:43;;;;;;;;;;;19.00;72.90;;;;;;493859;239;2002;-46
2021/08/17 04:14:44;;;;;;;;;;;19.00;72.80;;;;;;494027;240;1073;-46
2021/08/17 04:16:46;;;;;;;;;;;19.00;72.80;;;;;;494396;240;2127;-46
2021/08/17 04:18:47;;;;;;;;;;;19.00;72.80;;;;;;494177;240;1107;-46
2021/08/17 04:20:48;;;;;;;;;;;19.00;72.90;;;;;;494419;240;1143;-46
2021/08/17 04:22:49;;;;;;;;;;;19.00;72.90;;;;;;493969;240;1231;-46
2021/08/17 04:24:51;;;;;;;;;;;19.00;72.90;;;;;;494332;240;1149;-46
2021/08/17 04:26:52;;;;;;;;;;;19.00;73.00;;;;;;494164;240;1219;-46
2021/08/17 04:28:53;;;;;;;;;;;19.00;72.90;;;;;;494287;240;1069;-46
2021/08/17 04:30:55;;;;;;;;;;;19.00;72.80;;;;;;494456;240;1203;-46
2021/08/17 04:32:56;;;;;;;;;;;19.00;72.80;;;;;;494133;240;1044;-46
2021/08/17 04:34:57;;;;;;;;;;;19.00;72.80;;;;;;493991;240;1109;-46
2021/08/17 04:36:59;;;;;;;;;;;19.00;72.90;;;;;;494056;240;2190;-46
2021/08/17 04:39:00;;;;;;;;;;;18.90;72.90;;;;;;494270;240;1165;-47
2021/08/17 04:41:01;;;;;;;;;;;18.90;72.90;;;;;;493979;240;1402;-46
2021/08/17 04:43:03;;;;;;;;;;;19.00;73.00;;;;;;494170;240;1069;-46
2021/08/17 04:45:04;;;;;;;;;;;19.00;72.90;;;;;;494024;240;1085;-46
2021/08/17 04:47:05;;;;;;;;;;;19.00;72.90;;;;;;493914;240;1127;-46
2021/08/17 04:49:08;;;;;;;;;;;18.90;72.90;;;;;;494036;240;1257;-46
2021/08/17 04:51:09;;;;;;;;;;;18.90;72.90;;;;;;493903;240;2153;-46
2021/08/17 04:53:10;;;;;;;;;;;19.00;72.90;;;;;;493881;241;2344;-46
2021/08/17 04:55:11;;;;;;;;;;;19.00;72.80;;;;;;493847;240;1174;-46
2021/08/17 04:57:13;;;;;;;;;;;19.00;72.90;;;;;;494030;240;2194;-46
2021/08/17 04:59:15;;;;;;;;;;;18.90;72.90;;;;;;493898;240;1204;-46
2021/08/17 05:01:16;;;;;;;;;;;19.00;73.00;;;;;;493841;240;2035;-46
2021/08/17 05:03:18;;;;;;;;;;;19.00;72.90;;;;;;493977;240;1116;-46
2021/08/17 05:05:19;;;;;;;;;;;19.00;72.90;;;;;;493818;240;2301;-46
2021/08/17 05:07:20;;;;;;;;;;;19.00;72.90;;;;;;493896;240;1058;-45
2021/08/17 05:09:22;;;;;;;;;;;19.00;72.90;;;;;;493895;240;1141;-46
2021/08/17 05:11:23;;;;;;;;;;;19.00;72.90;;;;;;493902;240;2099;-46
2021/08/17 05:13:24;;;;;;;;;;;19.00;72.90;;;;;;493927;240;1072;-46
2021/08/17 05:15:25;;;;;;;;;;;19.00;72.90;;;;;;493964;240;1100;-46
2021/08/17 05:17:27;;;;;;;;;;;18.90;72.90;;;;;;493872;240;2120;-46
2021/08/17 05:19:28;;;;;;;;;;;18.90;72.90;;;;;;493870;240;1078;-46
2021/08/17 05:21:30;;;;;;;;;;;19.00;72.90;;;;;;493950;240;1281;-46
2021/08/17 05:23:31;;;;;;;;;;;18.90;72.90;;;;;;493818;240;1061;-46
2021/08/17 05:25:32;;;;;;;;;;;19.00;73.00;;;;;;493812;240;1151;-46
2021/08/17 05:27:34;;;;;;;;;;;19.00;72.90;;;;;;494070;240;1266;-46
2021/08/17 05:29:35;;;;;;;;;;;18.90;72.90;;;;;;493768;240;1200;-46
2021/08/17 05:31:36;;;;;;;;;;;18.90;72.80;;;;;;493668;240;1343;-46
2021/08/17 05:33:38;;;;;;;;;;;18.90;72.80;;;;;;493811;240;1161;-46
2021/08/17 05:35:40;;;;;;;;;;;19.00;72.90;;;;;;493653;240;1087;-46
2021/08/17 05:37:40;;;;;;;;;;;18.90;72.80;;;;;;493574;241;2190;-46
2021/08/17 05:39:42;;;;;;;;;;;19.00;72.90;;;;;;493855;240;1110;-46
2021/08/17 05:41:43;;;;;;;;;;;19.00;73.00;;;;;;493613;240;1310;-46
2021/08/17 05:43:45;;;;;;;;;;;19.00;72.90;;;;;;493688;240;1226;-46
2021/08/17 05:45:46;;;;;;;;;;;18.90;72.90;;;;;;493850;240;1178;-46
2021/08/17 05:47:47;;;;;;;;;;;19.00;72.90;;;;;;493733;240;1093;-46
2021/08/17 05:49:49;;;;;;;;;;;19.00;72.90;;;;;;493741;240;1057;-46
2021/08/17 05:51:50;;;;;;;;;;;19.00;73.00;;;;;;493650;240;1131;-46
2021/08/17 05:53:51;;;;;;;;;;;18.90;73.00;;;;;;493598;240;1241;-46
2021/08/17 05:55:53;;;;;;;;;;;18.90;72.90;;;;;;493517;240;1212;-46
2021/08/17 05:57:54;;;;;;;;;;;18.90;72.90;;;;;;493475;240;2203;-46
2021/08/17 05:59:56;;;;;;;;;;;18.90;72.80;;;;;;493731;240;1154;-46
2021/08/17 06:01:57;;;;;;;;;;;19.00;73.00;;;;;;493586;240;2206;-46
2021/08/17 06:03:58;;;;;;;;;;;19.00;72.90;;;;;;493781;240;1239;-47
2021/08/17 06:05:59;;;;;;;;;;;19.00;72.90;;;;;;493800;240;1138;-46
2021/08/17 06:08:01;;;;;;;;;;;18.90;73.00;;;;;;493735;240;1129;-46
2021/08/17 06:10:02;;;;;;;;;;;18.90;73.00;;;;;;493867;240;1087;-46
2021/08/17 06:12:03;;;;;;;;;;;18.90;73.00;;;;;;493549;240;1488;-46
2021/08/17 06:14:04;;;;;;;;;;;18.90;72.90;;;;;;493699;240;1222;-46
2021/08/17 06:16:06;;;;;;;;;;;18.90;72.90;;;;;;493626;240;1208;-46
2021/08/17 06:18:08;;;;;;;;;;;18.90;72.90;;;;;;493729;240;2131;-46
2021/08/17 06:20:09;;;;;;;;;;;18.90;72.90;;;;;;493673;240;2140;-46
2021/08/17 06:22:10;;;;;;;;;;;18.90;72.90;;;;;;493502;240;1229;-46
2021/08/17 06:24:11;;;;;;;;;;;19.00;72.90;;;;;;493449;240;1308;-46
2021/08/17 06:26:13;;;;;;;;;;;18.90;72.90;;;;;;493444;238;1302;-46
2021/08/17 06:28:14;;;;;;;;;;;18.90;72.80;;;;;;493494;240;1258;-46
2021/08/17 06:30:15;;;;;;;;;;;18.90;72.90;;;;;;493460;240;1157;-46
2021/08/17 06:32:17;;;;;;;;;;;18.90;72.90;;;;;;493229;240;1254;-46
2021/08/17 06:34:18;;;;;;;;;;;18.90;72.90;;;;;;493603;240;1081;-46
2021/08/17 06:36:19;;;;;;;;;;;18.90;72.90;;;;;;493578;240;1520;-47
2021/08/17 06:38:21;;;;;;;;;;;18.90;72.90;;;;;;493567;240;2143;-46
2021/08/17 06:40:22;;;;;;;;;;;18.90;72.90;;;;;;493522;240;1095;-46
2021/08/17 06:42:24;;;;;;;;;;;18.90;73.00;;;;;;493410;240;1539;-46
2021/08/17 06:44:25;;;;;;;;;;;18.90;73.10;;;;;;493548;240;1151;-46
2021/08/17 06:46:27;;;;;;;;;;;18.90;73.00;;;;;;493567;240;1365;-46
2021/08/17 06:48:28;;;;;;;;;;;18.90;73.00;;;;;;493437;240;1203;-46
2021/08/17 06:50:29;;;;;;;;;;;18.90;73.00;;;;;;493392;240;1137;-46
2021/08/17 06:52:31;;;;;;;;;;;18.90;73.00;;;;;;493368;240;1594;-46
2021/08/17 06:54:32;;;;;;;;;;;18.90;73.00;;;;;;493272;240;1313;-46
2021/08/17 06:56:33;;;;;;;;;;;18.90;73.00;;;;;;493350;240;1351;-46
2021/08/17 06:58:35;;;;;;;;;;;18.90;73.00;;;;;;493466;240;2147;-46
2021/08/17 07:00:36;;;;;;;;;;;18.90;73.10;;;;;;493523;240;1204;-46
2021/08/17 07:02:37;;;;;;;;;;;19.20;72.10;;;;;;493501;240;1187;-46
2021/08/17 07:04:38;;;;;;;;;;;19.40;71.00;;;;;;493441;240;1085;-46
2021/08/17 07:06:40;;;;;;;;;;;19.70;70.20;;;;;;493431;240;1213;-46
2021/08/17 07:08:41;;;;;;;;;;;19.80;69.60;;;;;;493221;240;1072;-46
2021/08/17 07:10:42;;;;;;;;;;;19.90;69.10;;;;;;493133;240;1183;-46
2021/08/17 07:12:44;;;;;;;;;;;20.00;68.70;;;;;;493060;240;1210;-46
2021/08/17 07:14:45;;;;;;;;;;;20.10;68.40;;;;;;493069;240;1120;-46
2021/08/17 07:16:46;;;;;;;;;;;20.20;68.20;;;;;;493035;240;1060;-46
2021/08/17 07:18:48;;;;;;;;;;;20.20;68.00;;;;;;493118;240;2178;-46
2021/08/17 07:20:49;;;;;;;;;;;20.30;67.90;;;;;;492957;240;1059;-46
2021/08/17 07:22:50;;;;;;;;;;;20.30;67.70;;;;;;492952;240;1038;-46
2021/08/17 07:24:52;;;;;;;;;;;20.40;67.50;;;;;;492953;240;1362;-46
2021/08/17 07:26:53;;;;;;;;;;;20.50;67.30;;;;;;492970;240;1615;-46
2021/08/17 07:28:54;;;;;;;;;;;20.50;67.10;;;;;;493083;240;1111;-46
2021/08/17 07:30:56;;;;;;;;;;;20.50;67.00;;;;;;493043;240;1050;-46
2021/08/17 07:32:57;;;;;;;;;;;20.50;66.90;;;;;;493064;240;1258;-47
2021/08/17 07:34:58;;;;;;;;;;;20.60;66.90;;;;;;493000;240;1335;-46
2021/08/17 07:37:00;;;;;;;;;;;20.60;66.70;;;;;;492990;240;1338;-46
2021/08/17 07:39:01;;;;;;;;;;;20.70;66.70;;;;;;493159;240;2124;-46
2021/08/17 07:41:02;;;;;;;;;;;20.60;66.60;;;;;;493026;240;1330;-47
2021/08/17 07:43:04;;;;;;;;;;;20.70;66.50;;;;;;493018;240;1197;-46
2021/08/17 07:45:05;;;;;;;;;;;20.70;66.40;;;;;;493016;240;1070;-46
2021/08/17 07:47:07;;;;;;;;;;;20.80;66.40;;;;;;493217;240;1235;-47
2021/08/17 07:49:08;;;;;;;;;;;20.80;66.30;;;;;;493989;240;1138;-46
2021/08/17 07:51:09;;;;;;;;;;;20.80;66.20;;;;;;494005;239;1172;-46
2021/08/17 07:53:10;;;;;;;;;;;20.80;66.00;;;;;;494072;240;989;-46
2021/08/17 07:55:12;;;;;;;;;;;20.90;65.90;;;;;;494103;240;864;-47
2021/08/17 07:57:13;;;;;;;;;;;21.00;65.80;;;;;;493807;240;1052;-46
2021/08/17 07:59:14;;;;;;;;;;;21.00;65.70;;;;;;494052;240;2185;-47
2021/08/17 08:01:16;;;;;;;;;;;21.00;65.60;;;;;;493835;240;1250;-46
2021/08/17 08:03:17;;;;;;;;;;;21.00;65.60;;;;;;493942;240;1249;-47
2021/08/17 08:05:18;;;;;;;;;;;21.00;65.50;;;;;;493605;240;829;-47
2021/08/17 08:07:20;;;;;;;;;;;21.10;65.50;;;;;;493926;240;1161;-46
2021/08/17 08:09:21;;;;;;;;;;;21.10;65.40;;;;;;493334;240;1081;-46
2021/08/17 08:11:23;;;;;;;;;;;21.10;65.30;;;;;;493253;240;1317;-46
2021/08/17 08:13:24;;;;;;;;;;;21.10;65.30;;;;;;493287;240;1134;-46
2021/08/17 08:15:25;;;;;;;;;;;21.10;65.30;;;;;;493523;240;1128;-46
2021/08/17 08:17:27;;;;;;;;;;;21.10;65.30;;;;;;493241;240;1255;-46
2021/08/17 08:19:28;;;;;;;;;;;21.20;65.30;;;;;;493467;240;2148;-47
2021/08/17 08:21:32;;;;;;;;;;;21.20;65.20;;;;;;492810;240;1084;-46
2021/08/17 08:23:31;;;;;;;;;;;21.20;65.20;;;;;;493064;241;1559;-46
2021/08/17 08:25:32;;;;;;;;;;;21.20;65.10;;;;;;493444;240;1097;-47
2021/08/17 08:27:33;;;;;;;;;;;21.20;65.10;;;;;;493433;240;1182;-46
2021/08/17 08:29:35;;;;;;;;;;;21.30;65.10;;;;;;493437;240;1109;-46
2021/08/17 08:31:36;;;;;;;;;;;21.30;64.90;;;;;;493230;240;1141;-46
2021/08/17 08:33:37;;;;;;;;;;;21.30;64.90;;;;;;493418;240;1190;-46
2021/08/17 08:35:39;;;;;;;;;;;21.30;64.90;;;;;;493254;240;1215;-46
2021/08/17 08:37:40;;;;;;;;;;;21.30;64.90;;;;;;493280;240;1393;-46
2021/08/17 08:39:41;;;;;;;;;;;21.30;64.90;;;;;;493215;240;2189;-47
2021/08/17 08:41:42;;;;;;;;;;;21.30;64.90;;;;;;492796;240;1177;-46
2021/08/17 08:43:44;;;;;;;;;;;21.30;65.10;;;;;;492944;240;1191;-47
2021/08/17 08:45:46;;;;;;;;;;;21.30;65.00;;;;;;492939;240;1171;-46
2021/08/17 08:47:47;;;;;;;;;;;21.40;65.00;;;;;;492909;241;2370;-46
2021/08/17 08:49:48;;;;;;;;;;;21.40;64.80;;;;;;493085;240;1086;-47
2021/08/17 08:51:49;;;;;;;;;;;21.40;64.70;;;;;;493204;240;1941;-46
2021/08/17 08:53:50;;;;;;;;;;;21.40;64.60;;;;;;492997;240;2066;-47
2021/08/17 08:55:52;;;;;;;;;;;21.50;64.70;;;;;;492962;240;1314;-47
2021/08/17 08:57:53;;;;;;;;;;;21.50;64.50;;;;;;492949;240;1282;-47
2021/08/17 08:59:54;;;;;;;;;;;21.50;64.50;;;;;;492926;240;2195;-46
2021/08/17 09:01:57;;;;;;;;;;;21.50;64.60;;;;;;492686;240;1256;-46
2021/08/17 09:03:57;;;;;;;;;;;21.50;64.50;;;;;;492388;240;1224;-47
2021/08/17 09:05:59;;;;;;;;;;;21.50;64.50;;;;;;493266;240;1154;-46
2021/08/17 09:08:00;;;;;;;;;;;21.50;64.50;;;;;;493623;240;1023;-47
2021/08/17 09:10:01;;;;;;;;;;;21.60;64.40;;;;;;493593;240;889;-47
2021/08/17 09:12:03;;;;;;;;;;;21.60;64.40;;;;;;493568;240;1207;-46
2021/08/17 09:14:04;;;;;;;;;;;21.60;64.50;;;;;;493149;240;1205;-47
2021/08/17 09:16:05;;;;;;;;;;;21.60;64.50;;;;;;493047;240;1252;-46
2021/08/17 09:18:07;;;;;;;;;;;21.60;64.40;;;;;;493972;240;1010;-47
2021/08/17 09:20:08;;;;;;;;;;;21.60;64.40;;;;;;493502;240;2199;-46
2021/08/17 09:22:09;;;;;;;;;;;21.60;64.40;;;;;;493459;240;1216;-46
2021/08/17 09:24:11;;;;;;;;;;;21.60;64.40;;;;;;494027;240;1619;-46
2021/08/17 09:26:12;;;;;;;;;;;21.60;64.30;;;;;;494063;240;1148;-46
2021/08/17 09:28:13;;;;;;;;;;;21.70;64.40;;;;;;493893;240;1126;-47
2021/08/17 09:30:16;;;;;;;;;;;21.60;64.40;;;;;;494065;240;919;-47
2021/08/17 09:32:16;;;;;;;;;;;21.60;64.30;;;;;;493470;241;1276;-47
2021/08/17 09:34:18;;;;;;;;;;;21.60;64.30;;;;;;493593;240;1076;-47
2021/08/17 09:36:18;;;;;;;;;;;21.60;64.40;;;;;;493219;240;2133;-46
2021/08/17 09:38:20;;;;;;;;;;;21.60;64.40;;;;;;493234;240;1169;-47
2021/08/17 09:40:21;;;;;;;;;;;21.70;64.30;;;;;;493266;240;1211;-47
2021/08/17 09:42:22;;;;;;;;;;;21.70;65.00;;;;;;493079;240;1248;-46
2021/08/17 09:44:24;;;;;;;;;;;21.60;65.30;;;;;;493267;240;1192;-46
2021/08/17 09:46:25;;;;;;;;;;;21.30;66.30;;;;;;493237;240;1138;-46
2021/08/17 09:48:27;;;;;;;;;;;20.90;67.60;;;;;;493244;240;1228;-46
2021/08/17 09:50:28;;;;;;;;;;;20.70;68.60;;;;;;493343;240;1214;-46
2021/08/17 09:52:29;;;;;;;;;;;20.50;69.30;;;;;;493257;240;1151;-46
2021/08/17 09:54:31;;;;;;;;;;;20.30;69.80;;;;;;493352;240;1107;-46
2021/08/17 09:56:32;;;;;;;;;;;20.20;70.10;;;;;;493244;240;1196;-46
2021/08/17 09:58:34;;;;;;;;;;;20.10;70.30;;;;;;493376;240;2192;-46
2021/08/17 10:00:35;;;;;;;;;;;20.10;70.60;;;;;;493188;240;1116;-46
2021/08/17 10:02:36;;;;;;;;;;;20.00;70.60;;;;;;493169;240;1137;-46
2021/08/17 10:04:38;;;;;;;;;;;20.00;70.70;;;;;;493240;240;1103;-46
2021/08/17 10:06:39;;;;;;;;;;;19.90;70.90;;;;;;493041;240;1128;-46
2021/08/17 10:08:40;;;;;;;;;;;19.90;71.10;;;;;;493099;240;1125;-46
2021/08/17 10:10:42;;;;;;;;;;;19.90;71.10;;;;;;493292;240;1130;-46
2021/08/17 10:12:43;;;;;;;;;;;19.90;71.00;;;;;;493181;240;1085;-46
2021/08/17 10:14:44;;;;;;;;;;;19.90;70.90;;;;;;493285;240;1172;-46
2021/08/17 10:16:46;;;;;;;;;;;19.80;70.90;;;;;;493115;240;1126;-46
2021/08/17 10:18:47;;;;;;;;;;;19.80;70.90;;;;;;493377;240;2158;-46
2021/08/17 10:20:48;;;;;;;;;;;19.80;71.00;;;;;;493214;240;1065;-47
2021/08/17 10:22:50;;;;;;;;;;;19.80;71.00;;;;;;493087;240;1323;-46
2021/08/17 10:24:51;;;;;;;;;;;19.80;71.10;;;;;;493294;240;1098;-46
2021/08/17 10:26:52;;;;;;;;;;;19.80;71.00;;;;;;493397;240;1368;-46
2021/08/17 10:28:54;;;;;;;;;;;19.80;71.10;;;;;;493374;240;1226;-46
2021/08/17 10:30:55;;;;;;;;;;;19.80;71.10;;;;;;493209;240;1116;-46
2021/08/17 10:32:57;;;;;;;;;;;19.70;71.10;;;;;;493265;240;1244;-46
2021/08/17 10:34:58;;;;;;;;;;;19.70;71.10;;;;;;493576;240;1215;-46
2021/08/17 10:36:59;;;;;;;;;;;19.70;71.10;;;;;;493402;240;1240;-46
2021/08/17 10:39:01;;;;;;;;;;;19.70;71.00;;;;;;493376;240;2186;-46
2021/08/17 10:41:03;;;;;;;;;;;19.70;71.00;;;;;;493078;240;1253;-47
2021/08/17 10:43:04;;;;;;;;;;;19.70;71.00;;;;;;493390;240;1260;-46
2021/08/17 10:45:06;;;;;;;;;;;19.60;71.00;;;;;;493255;240;1201;-46
2021/08/17 10:47:09;;;;;;;;;;;19.60;71.10;;;;;;493124;240;1145;-46
2021/08/17 10:49:08;;;;;;;;;;;19.70;70.90;;;;;;493140;241;2014;-46
2021/08/17 10:51:10;;;;;;;;;;;19.60;71.00;;;;;;493584;240;1227;-46
2021/08/17 10:53:11;;;;;;;;;;;19.60;71.10;;;;;;493374;240;1095;-46
2021/08/17 10:55:12;;;;;;;;;;;19.60;71.00;;;;;;493312;240;1193;-46
2021/08/17 10:57:14;;;;;;;;;;;19.60;71.10;;;;;;493175;240;1316;-46
2021/08/17 10:59:15;;;;;;;;;;;19.60;71.10;;;;;;493146;240;2187;-46
2021/08/17 11:01:16;;;;;;;;;;;19.60;71.10;;;;;;493353;240;1313;-46
2021/08/17 11:03:18;;;;;;;;;;;19.60;71.10;;;;;;493263;240;1066;-46
2021/08/17 11:05:19;;;;;;;;;;;19.60;71.10;;;;;;493077;240;1501;-46
2021/08/17 11:07:20;;;;;;;;;;;19.60;71.10;;;;;;493439;240;1141;-46
2021/08/17 11:09:22;;;;;;;;;;;19.60;71.00;;;;;;493569;240;832;-47
2021/08/17 11:11:23;;;;;;;;;;;19.60;71.10;;;;;;493973;240;1783;-46
2021/08/17 11:13:25;;;;;;;;;;;19.50;71.00;;;;;;494039;240;1207;-46
2021/08/17 11:15:26;;;;;;;;;;;19.60;71.00;;;;;;493458;240;1714;-46
2021/08/17 11:17:27;;;;;;;;;;;19.50;71.10;;;;;;493367;240;1263;-46
2021/08/17 11:19:28;;;;;;;;;;;19.60;71.10;;;;;;493960;240;2198;-46
2021/08/17 11:21:29;;;;;;;;;;;19.60;71.10;;;;;;493526;240;1153;-46
2021/08/17 11:23:31;;;;;;;;;;;19.60;70.90;;;;;;493985;240;1151;-46
2021/08/17 11:25:32;;;;;;;;;;;19.50;71.00;;;;;;493840;240;856;-46
2021/08/17 11:27:36;;;;;;;;;;;19.50;71.00;;;;;;493758;240;1086;-45
2021/08/17 11:29:35;;;;;;;;;;;19.50;71.00;;;;;;493646;241;1390;-46
2021/08/17 11:31:36;;;;;;;;;;;19.50;71.00;;;;;;494006;240;1070;-46
2021/08/17 11:33:37;;;;;;;;;;;19.50;70.90;;;;;;493991;240;1118;-46
2021/08/17 11:35:40;;;;;;;;;;;19.60;71.10;;;;;;493521;240;892;-46
2021/08/17 11:37:42;;;;;;;;;;;19.50;70.90;;;;;;493842;240;1810;-46
2021/08/17 11:39:42;;;;;;;;;;;19.50;71.00;;;;;;493432;241;2203;-46
2021/08/17 11:41:43;;;;;;;;;;;19.50;71.00;;;;;;493897;240;1102;-46
2021/08/17 11:43:45;;;;;;;;;;;19.50;71.00;;;;;;493927;240;1041;-46
2021/08/17 11:45:46;;;;;;;;;;;19.50;71.00;;;;;;493502;240;1281;-46
2021/08/17 11:47:47;;;;;;;;;;;19.50;70.90;;;;;;493830;240;1114;-46
2021/08/17 11:49:49;;;;;;;;;;;19.50;70.90;;;;;;493453;240;838;-46
2021/08/17 11:51:50;;;;;;;;;;;19.50;71.00;;;;;;493320;240;1093;-46
2021/08/17 11:53:51;;;;;;;;;;;19.50;71.10;;;;;;493349;240;1034;-46
2021/08/17 11:55:53;;;;;;;;;;;19.40;71.20;;;;;;493946;240;901;-45
2021/08/17 11:57:54;;;;;;;;;;;19.50;71.30;;;;;;493985;240;1161;-46